createdAt,value
2019-05-16T00:01:51.033Z,14.27
2019-05-16T00:04:23.176Z,14.25
2019-05-16T00:06:54.823Z,14.25
2019-05-16T00:09:28.589Z,14.30
2019-05-16T00:12:00.435Z,14.32
2019-05-16T00:14:32.290Z,14.33
2019-05-16T00:17:04.495Z,14.30
2019-05-16T00:19:38.119Z,14.32
2019-05-16T00:22:09.991Z,14.33
2019-05-16T00:24:41.790Z,14.36
2019-05-16T00:27:13.542Z,14.35
2019-05-16T00:29:45.673Z,14.36
2019-05-16T00:32:19.109Z,14.38
2019-05-16T00:34:51.392Z,14.35
2019-05-16T00:37:23.391Z,14.30
2019-05-16T00:39:54.847Z,14.27
2019-05-16T00:42:28.672Z,14.31
2019-05-16T00:45:01.033Z,14.34
2019-05-16T00:47:32.944Z,14.35
2019-05-16T00:50:05.159Z,14.24
2019-05-16T00:52:39.114Z,14.22
2019-05-16T00:55:10.822Z,14.09
2019-05-16T00:57:43.212Z,13.99
2019-05-16T01:00:18.049Z,14.04
2019-05-16T01:02:49.551Z,14.09
2019-05-16T01:05:21.733Z,13.95
2019-05-16T01:07:53.593Z,13.94
2019-05-16T01:10:25.592Z,14.02
2019-05-16T01:12:58.461Z,13.92
2019-05-16T01:15:30.564Z,13.91
2019-05-16T01:18:02.558Z,13.88
2019-05-16T01:20:34.566Z,13.89
2019-05-16T01:23:08.734Z,13.93
2019-05-16T01:25:39.932Z,13.84
2019-05-16T01:28:11.680Z,13.87
2019-05-16T01:30:43.722Z,13.93
2019-05-16T01:33:15.502Z,13.93
2019-05-16T01:35:47.948Z,13.96
2019-05-16T01:38:20.088Z,13.93
2019-05-16T01:40:53.222Z,13.95
2019-05-16T01:43:24.890Z,13.96
2019-05-16T01:45:57.822Z,13.92
2019-05-16T01:48:31.945Z,13.93
2019-05-16T01:51:03.581Z,13.91
2019-05-16T01:53:35.154Z,13.85
2019-05-16T01:56:08.570Z,13.84
2019-05-16T01:58:40.218Z,13.89
2019-05-16T02:01:15.710Z,13.89
2019-05-16T02:03:48.123Z,13.86
2019-05-16T02:06:20.186Z,13.81
2019-05-16T02:08:51.779Z,13.78
2019-05-16T02:11:23.564Z,13.76
2019-05-16T02:13:58.591Z,13.79
2019-05-16T02:16:31.073Z,13.83
2019-05-16T02:19:02.679Z,13.84
2019-05-16T02:21:34.711Z,13.82
2019-05-16T02:24:08.687Z,13.77
2019-05-16T02:26:40.289Z,13.77
2019-05-16T02:29:13.762Z,13.80
2019-05-16T02:31:45.508Z,13.79
2019-05-16T02:34:17.578Z,13.80
2019-05-16T02:37:10.275Z,13.83
2019-05-16T02:39:30.324Z,13.88
2019-05-16T02:42:02.074Z,13.91
2019-05-16T02:44:33.912Z,13.95
2019-05-16T02:47:05.871Z,14.04
2019-05-16T02:49:41.623Z,14.13
2019-05-16T02:52:11.326Z,14.19
2019-05-16T02:54:43.159Z,14.22
2019-05-16T02:57:15.016Z,14.22
2019-05-16T02:59:47.121Z,14.26
2019-05-16T03:02:20.529Z,14.22
2019-05-16T03:04:52.500Z,14.09
2019-05-16T03:07:37.569Z,14.06
2019-05-16T03:10:01.488Z,13.98
2019-05-16T03:12:34.375Z,13.98
2019-05-16T03:15:07.114Z,14.06
2019-05-16T03:17:41.633Z,14.06
2019-05-16T03:20:14.120Z,14.07
2019-05-16T03:22:52.008Z,13.96
2019-05-16T03:25:22.473Z,13.97
2019-05-16T03:27:54.294Z,13.92
2019-05-16T03:30:26.309Z,13.98
2019-05-16T03:33:03.833Z,13.86
2019-05-16T03:35:34.209Z,13.92
2019-05-16T03:38:06.251Z,13.86
2019-05-16T03:40:41.029Z,13.81
2019-05-16T03:43:12.098Z,13.80
2019-05-16T03:45:44.375Z,13.79
2019-05-16T03:48:16.055Z,13.79
2019-05-16T03:50:50.493Z,13.89
2019-05-16T03:53:22.673Z,13.91
2019-05-16T03:55:54.790Z,13.87
2019-05-16T03:58:26.229Z,13.88
2019-05-16T04:01:01.820Z,13.91
2019-05-16T04:03:33.223Z,13.99
2019-05-16T04:06:05.008Z,13.98
2019-05-16T04:08:36.788Z,13.92
2019-05-16T04:11:11.370Z,13.99
2019-05-16T04:13:41.800Z,14.00
2019-05-16T04:16:13.794Z,14.00
2019-05-16T04:18:45.486Z,14.01
2019-05-16T04:21:18.690Z,14.04
2019-05-16T04:23:50.769Z,14.03
2019-05-16T04:26:22.774Z,14.04
2019-05-16T04:28:54.799Z,14.06
2019-05-16T04:31:26.535Z,14.03
2019-05-16T04:34:01.120Z,14.08
2019-05-16T04:36:32.724Z,14.05
2019-05-16T04:39:07.553Z,14.01
2019-05-16T04:41:40.972Z,14.02
2019-05-16T04:44:12.851Z,14.11
2019-05-16T04:46:44.500Z,14.14
2019-05-16T04:49:16.401Z,14.15
2019-05-16T04:51:51.368Z,14.25
2019-05-16T04:54:21.919Z,14.23
2019-05-16T04:56:53.483Z,14.32
2019-05-16T04:59:25.442Z,14.36
2019-05-16T05:01:57.253Z,14.47
2019-05-16T05:04:30.564Z,14.64
2019-05-16T05:07:02.869Z,14.83
2019-05-16T05:09:34.498Z,14.88
2019-05-16T05:12:06.446Z,14.94
2019-05-16T05:14:41.450Z,15.03
2019-05-16T05:17:12.294Z,15.12
2019-05-16T05:19:45.594Z,15.15
2019-05-16T05:22:17.150Z,15.22
2019-05-16T05:24:50.775Z,15.27
2019-05-16T05:27:22.889Z,15.38
2019-05-16T05:29:54.644Z,15.43
2019-05-16T05:32:26.810Z,15.42
2019-05-16T05:34:59.914Z,15.43
2019-05-16T05:37:32.190Z,15.37
2019-05-16T05:40:05.226Z,15.23
2019-05-16T05:42:39.938Z,15.26
2019-05-16T05:45:13.299Z,15.33
2019-05-16T05:47:45.596Z,15.25
2019-05-16T05:50:20.223Z,15.26
2019-05-16T05:52:51.511Z,15.20
2019-05-16T05:55:23.132Z,15.20
2019-05-16T05:57:55.090Z,15.24
2019-05-16T06:00:30.134Z,15.22
2019-05-16T06:03:00.729Z,15.27
2019-05-16T06:05:32.697Z,15.36
2019-05-16T06:08:04.537Z,15.46
2019-05-16T06:10:36.343Z,15.44
2019-05-16T06:13:10.957Z,15.45
2019-05-16T06:15:44.693Z,15.55
2019-05-16T06:18:16.520Z,15.66
2019-05-16T06:20:51.255Z,15.71
2019-05-16T06:23:22.578Z,15.78
2019-05-16T06:25:54.740Z,15.86
2019-05-16T06:28:26.288Z,15.89
2019-05-16T06:31:01.416Z,16.03
2019-05-16T06:33:31.771Z,16.19
2019-05-16T06:36:03.818Z,16.18
2019-05-16T06:38:35.830Z,16.35
2019-05-16T06:41:07.449Z,16.33
2019-05-16T06:43:39.995Z,16.32
2019-05-16T06:46:12.754Z,16.30
2019-05-16T06:48:44.196Z,16.39
2019-05-16T06:51:16.071Z,16.55
2019-05-16T06:53:49.829Z,16.56
2019-05-16T06:56:21.377Z,16.47
2019-05-16T06:58:53.731Z,16.39
2019-05-16T07:01:29.652Z,16.37
2019-05-16T07:04:01.117Z,16.38
2019-05-16T07:06:51.744Z,16.36
2019-05-16T07:09:10.336Z,16.34
2019-05-16T07:11:41.457Z,16.29
2019-05-16T07:14:13.735Z,16.41
2019-05-16T07:16:45.800Z,16.53
2019-05-16T07:19:17.864Z,16.57
2019-05-16T07:21:50.787Z,16.57
2019-05-16T07:24:23.119Z,16.65
2019-05-16T07:26:54.815Z,16.79
2019-05-16T07:29:27.767Z,16.94
2019-05-16T07:32:01.088Z,16.96
2019-05-16T07:34:32.961Z,16.90
2019-05-16T07:37:04.981Z,16.77
2019-05-16T07:39:38.662Z,16.69
2019-05-16T07:42:11.407Z,16.62
2019-05-16T07:44:43.263Z,16.56
2019-05-16T07:47:14.941Z,16.63
2019-05-16T07:49:46.945Z,16.65
2019-05-16T07:52:20.895Z,16.67
2019-05-16T07:54:52.279Z,16.76
2019-05-16T07:57:24.315Z,16.80
2019-05-16T08:00:00.320Z,16.97
2019-05-16T08:02:40.375Z,17.14
2019-05-16T08:05:14.826Z,17.22
2019-05-16T08:07:50.828Z,17.46
2019-05-16T08:10:37.122Z,17.54
2019-05-16T08:13:03.316Z,17.79
2019-05-16T08:15:35.071Z,17.97
2019-05-16T08:18:06.951Z,18.18
2019-05-16T08:20:41.274Z,18.42
2019-05-16T08:23:13.426Z,18.63
2019-05-16T08:25:45.586Z,19.62
2019-05-16T08:28:20.518Z,19.89
2019-05-16T08:30:52.851Z,20.57
2019-05-16T08:33:26.931Z,20.55
2019-05-16T08:36:04.698Z,20.63
2019-05-16T08:38:33.877Z,20.76
2019-05-16T08:41:11.986Z,20.80
2019-05-16T08:43:41.286Z,21.18
2019-05-16T08:46:12.596Z,21.23
2019-05-16T08:48:44.387Z,21.41
2019-05-16T08:51:16.165Z,21.65
2019-05-16T08:53:50.438Z,22.03
2019-05-16T08:56:22.557Z,22.57
2019-05-16T08:58:55.083Z,22.09
2019-05-16T09:01:27.197Z,21.57
2019-05-16T09:04:01.388Z,21.18
2019-05-16T09:06:34.047Z,20.84
2019-05-16T09:10:19.015Z,20.47
2019-05-16T09:11:45.112Z,20.31
2019-05-16T09:14:17.141Z,20.37
2019-05-16T09:16:50.580Z,20.95
2019-05-16T09:19:27.531Z,21.43
2019-05-16T09:21:59.305Z,21.70
2019-05-16T09:24:31.256Z,22.52
2019-05-16T09:27:05.131Z,22.49
2019-05-16T09:29:37.746Z,22.41
2019-05-16T09:32:17.112Z,22.64
2019-05-16T09:34:43.686Z,22.52
2019-05-16T09:37:17.714Z,22.63
2019-05-16T09:39:49.021Z,23.18
2019-05-16T09:42:21.297Z,23.55
2019-05-16T09:44:53.257Z,23.33
2019-05-16T09:47:27.899Z,23.43
2019-05-16T09:49:58.486Z,23.60
2019-05-16T09:52:30.628Z,24.10
2019-05-16T09:55:03.115Z,24.14
2019-05-16T09:57:37.602Z,24.39
2019-05-16T10:00:13.526Z,24.24
2019-05-16T10:02:47.509Z,23.78
2019-05-16T10:05:21.309Z,23.81
2019-05-16T10:08:10.223Z,24.22
2019-05-16T10:10:42.226Z,24.63
2019-05-16T10:13:18.303Z,24.52
2019-05-16T10:15:50.455Z,23.77
2019-05-16T10:18:22.050Z,23.57
2019-05-16T10:20:58.974Z,23.17
2019-05-16T10:23:30.590Z,23.37
2019-05-16T10:26:05.026Z,23.88
2019-05-16T10:28:38.372Z,24.77
2019-05-16T10:31:12.588Z,25.01
2019-05-16T10:33:47.665Z,25.24
2019-05-16T10:36:21.590Z,25.13
2019-05-16T10:38:59.043Z,24.68
2019-05-16T10:41:27.469Z,24.54
2019-05-16T10:44:00.680Z,24.56
2019-05-16T10:46:32.782Z,24.26
2019-05-16T10:49:05.105Z,24.85
2019-05-16T10:51:37.858Z,25.12
2019-05-16T10:54:18.535Z,25.24
2019-05-16T10:56:49.951Z,25.11
2019-05-16T10:59:54.581Z,25.06
2019-05-16T11:02:27.546Z,25.08
2019-05-16T11:05:22.624Z,24.89
2019-05-16T11:07:38.414Z,25.36
2019-05-16T11:10:21.875Z,25.81
2019-05-16T11:13:02.140Z,25.26
2019-05-16T11:15:42.109Z,25.97
2019-05-16T11:18:17.403Z,26.10
2019-05-16T11:20:59.557Z,25.71
2019-05-16T11:23:31.913Z,25.28
2019-05-16T11:26:03.993Z,24.51
2019-05-16T11:28:36.985Z,24.56
2019-05-16T11:31:09.229Z,25.09
2019-05-16T11:33:41.276Z,25.57
2019-05-16T11:36:16.567Z,25.43
2019-05-16T11:38:48.000Z,25.70
2019-05-16T11:41:19.923Z,25.00
2019-05-16T11:43:54.203Z,25.05
2019-05-16T11:46:28.175Z,24.27
2019-05-16T11:49:00.112Z,25.04
2019-05-16T11:51:32.024Z,25.76
2019-05-16T11:54:06.771Z,25.83
2019-05-16T11:56:41.955Z,25.50
2019-05-16T11:59:14.395Z,25.74
2019-05-16T12:01:47.414Z,25.79
2019-05-16T12:04:20.078Z,25.45
2019-05-16T12:06:52.027Z,24.79
2019-05-16T12:09:33.474Z,25.30
2019-05-16T12:12:04.241Z,24.97
2019-05-16T12:14:37.260Z,24.65
2019-05-16T12:17:08.780Z,24.48
2019-05-16T12:19:43.909Z,24.05
2019-05-16T12:22:14.436Z,23.99
2019-05-16T12:24:47.709Z,24.33
2019-05-16T12:27:20.046Z,24.15
2019-05-16T12:29:59.613Z,23.48
2019-05-16T12:32:28.393Z,22.85
2019-05-16T12:35:01.443Z,23.00
2019-05-16T12:37:37.227Z,22.61
2019-05-16T12:40:10.095Z,22.96
2019-05-16T12:42:41.571Z,23.51
2019-05-16T12:45:13.590Z,23.65
2019-05-16T12:47:47.253Z,23.21
2019-05-16T12:50:19.848Z,22.07
2019-05-16T12:52:51.691Z,22.78
2019-05-16T12:55:24.088Z,22.62
2019-05-16T12:58:11.839Z,22.80
2019-05-16T13:00:29.924Z,22.65
2019-05-16T13:03:01.723Z,22.22
2019-05-16T13:05:37.575Z,22.17
2019-05-16T13:08:09.812Z,22.09
2019-05-16T13:10:41.379Z,21.98
2019-05-16T13:13:13.531Z,22.02
2019-05-16T13:15:47.519Z,21.30
2019-05-16T13:18:18.515Z,21.61
2019-05-16T13:20:50.530Z,21.61
2019-05-16T13:23:22.009Z,21.48
2019-05-16T13:25:57.479Z,21.53
2019-05-16T13:28:28.812Z,21.39
2019-05-16T13:31:00.987Z,21.31
2019-05-16T13:33:32.670Z,21.55
2019-05-16T13:36:04.260Z,20.91
2019-05-16T13:39:08.047Z,21.27
2019-05-16T13:41:48.057Z,21.02
2019-05-16T13:44:34.182Z,20.93
2019-05-16T13:47:07.677Z,20.91
2019-05-16T13:49:40.105Z,20.79
2019-05-16T13:52:12.750Z,20.68
2019-05-16T13:54:45.764Z,20.51
2019-05-16T13:57:18.447Z,20.32
2019-05-16T13:59:50.814Z,20.05
2019-05-16T14:02:23.165Z,19.85
2019-05-16T14:04:57.472Z,20.01
2019-05-16T14:07:29.399Z,20.06
2019-05-16T14:10:01.303Z,20.10
2019-05-16T14:12:36.489Z,19.91
2019-05-16T14:15:09.065Z,19.79
2019-05-16T14:17:41.017Z,19.48
2019-05-16T14:20:15.042Z,19.23
2019-05-16T14:22:48.040Z,19.26
2019-05-16T14:25:23.034Z,19.36
2019-05-16T14:27:56.819Z,19.14
2019-05-16T14:30:28.763Z,19.28
2019-05-16T14:33:02.498Z,19.04
2019-05-16T14:35:34.812Z,19.06
2019-05-16T14:38:06.715Z,19.12
2019-05-16T14:40:50.504Z,18.79
2019-05-16T14:43:22.128Z,18.58
2019-05-16T14:45:54.079Z,18.67
2019-05-16T14:48:27.857Z,18.57
2019-05-16T14:50:59.138Z,18.44
2019-05-16T14:53:31.404Z,18.48
2019-05-16T14:56:03.493Z,18.60
2019-05-16T14:58:37.794Z,18.40
2019-05-16T15:01:09.321Z,18.35
2019-05-16T15:03:42.967Z,18.26
2019-05-16T15:06:17.975Z,18.17
2019-05-16T15:08:48.937Z,18.16
2019-05-16T15:11:20.474Z,18.30
2019-05-16T15:13:52.426Z,18.26
2019-05-16T15:16:24.283Z,18.19
2019-05-16T15:18:57.548Z,18.19
2019-05-16T15:21:29.520Z,18.12
2019-05-16T15:24:01.298Z,18.07
2019-05-16T15:26:33.263Z,17.97
2019-05-16T15:29:08.214Z,18.02
2019-05-16T15:31:39.603Z,17.94
2019-05-16T15:34:11.724Z,18.00
2019-05-16T15:36:43.306Z,18.05
2019-05-16T15:39:16.959Z,18.16
2019-05-16T15:41:50.671Z,18.16
2019-05-16T15:44:27.221Z,18.18
2019-05-16T15:46:59.976Z,18.00
2019-05-16T15:49:37.688Z,17.92
2019-05-16T15:52:11.269Z,17.85
2019-05-16T15:54:45.193Z,17.79
2019-05-16T15:57:17.727Z,17.78
2019-05-16T15:59:49.910Z,17.84
2019-05-16T16:02:22.656Z,17.87
2019-05-16T16:04:57.431Z,17.78
2019-05-16T16:07:29.489Z,17.79
2019-05-16T16:10:06.833Z,17.83
2019-05-16T16:12:47.743Z,17.69
2019-05-16T16:15:20.422Z,17.70
2019-05-16T16:17:52.239Z,17.65
2019-05-16T16:20:28.086Z,17.66
2019-05-16T16:23:00.231Z,17.59
2019-05-16T16:25:32.345Z,17.62
2019-05-16T16:28:07.130Z,17.66
2019-05-16T16:30:39.132Z,17.66
2019-05-16T16:33:25.147Z,17.58
2019-05-16T16:35:57.554Z,17.50
2019-05-16T16:38:32.497Z,17.45
2019-05-16T16:41:18.193Z,17.52
2019-05-16T16:43:53.594Z,17.56
2019-05-16T16:46:40.778Z,17.54
2019-05-16T16:49:18.649Z,17.54
2019-05-16T16:51:51.288Z,17.49
2019-05-16T16:54:58.022Z,17.44
2019-05-16T16:57:31.320Z,17.40
2019-05-16T17:00:08.088Z,17.35
2019-05-16T17:06:18.175Z,17.12
2019-05-16T17:13:13.415Z,16.92
2019-05-16T17:16:02.062Z,16.81
2019-05-16T17:19:13.242Z,16.72
2019-05-16T17:22:21.658Z,16.69
2019-05-16T17:25:47.808Z,16.53
2019-05-16T17:28:17.553Z,16.35
2019-05-16T17:30:49.570Z,16.27
2019-05-16T17:33:21.578Z,16.21
2019-05-16T17:35:53.506Z,16.18
2019-05-16T17:39:19.571Z,16.23
2019-05-16T17:46:36.842Z,16.12
2019-05-16T17:49:26.693Z,16.08
2019-05-16T17:56:48.726Z,15.87
2019-05-16T17:59:27.650Z,15.68
2019-05-16T18:02:12.862Z,15.67
2019-05-16T18:04:47.128Z,15.70
2019-05-16T18:07:20.727Z,15.76
2019-05-16T18:09:56.836Z,15.67
2019-05-16T18:12:28.958Z,15.76
2019-05-16T18:15:08.410Z,15.70
2019-05-16T18:17:46.780Z,15.65
2019-05-16T18:20:22.501Z,15.56
2019-05-16T18:22:56.961Z,15.51
2019-05-16T18:25:36.840Z,15.53
2019-05-16T18:28:12.133Z,15.50
2019-05-16T18:30:47.075Z,15.40
2019-05-16T18:33:21.552Z,15.42
2019-05-16T18:35:57.978Z,15.43
2019-05-16T18:38:30.878Z,15.36
2019-05-16T18:41:07.808Z,15.35
2019-05-16T18:43:40.185Z,15.33
2019-05-16T18:46:12.126Z,15.32
2019-05-16T18:48:46.992Z,15.29
2019-05-16T18:51:18.586Z,15.19
2019-05-16T18:53:50.857Z,15.13
2019-05-16T18:56:27.169Z,15.05
2019-05-16T18:58:59.141Z,15.08
2019-05-16T19:01:31.601Z,15.10
2019-05-16T19:04:06.705Z,15.07
2019-05-16T19:06:37.910Z,14.94
2019-05-16T19:09:10.563Z,14.92
2019-05-16T19:11:52.735Z,14.89
2019-05-16T19:14:28.663Z,14.82
2019-05-16T19:17:00.650Z,14.83
2019-05-16T19:19:37.596Z,14.87
2019-05-16T19:22:10.152Z,14.78
2019-05-16T19:24:48.352Z,14.76
2019-05-16T19:27:23.517Z,14.77
2019-05-16T19:29:58.795Z,14.74
2019-05-16T19:32:31.715Z,14.69
2019-05-16T19:35:03.987Z,14.66
2019-05-16T19:37:40.378Z,14.63
2019-05-16T19:40:11.463Z,14.60
2019-05-16T19:42:47.149Z,14.56
2019-05-16T19:45:19.341Z,14.48
2019-05-16T19:47:50.956Z,14.47
2019-05-16T19:50:26.791Z,14.54
2019-05-16T19:52:58.977Z,14.62
2019-05-16T19:55:30.641Z,14.56
2019-05-16T19:58:03.063Z,14.56
2019-05-16T20:00:37.173Z,14.58
2019-05-16T20:03:08.254Z,14.63
2019-05-16T20:05:40.282Z,14.67
2019-05-16T20:08:12.721Z,14.68
2019-05-16T20:10:44.271Z,14.64
2019-05-16T20:13:16.589Z,14.66
2019-05-16T20:15:49.059Z,14.69
2019-05-16T20:18:21.012Z,14.72
2019-05-16T20:20:56.769Z,14.73
2019-05-16T20:23:28.827Z,14.69
2019-05-16T20:26:00.674Z,14.76
2019-05-16T20:28:32.495Z,14.75
2019-05-16T20:31:04.043Z,14.73
2019-05-16T20:33:37.622Z,14.69
2019-05-16T20:36:09.789Z,14.71
2019-05-16T20:38:41.958Z,14.74
2019-05-16T20:41:13.593Z,14.70
2019-05-16T20:43:47.354Z,14.70
2019-05-16T20:46:19.124Z,14.73
2019-05-16T20:48:51.199Z,14.74
2019-05-16T20:51:23.319Z,14.71
2019-05-16T20:53:57.739Z,14.73
2019-05-16T20:56:28.911Z,14.74
2019-05-16T20:59:00.931Z,14.77
2019-05-16T21:01:33.007Z,14.80
2019-05-16T21:04:07.023Z,14.81
2019-05-16T21:06:38.768Z,14.73
2019-05-16T21:09:46.350Z,14.73
2019-05-16T21:12:19.258Z,14.72
2019-05-16T21:14:51.216Z,14.74
2019-05-16T21:17:23.668Z,14.79
2019-05-16T21:19:57.700Z,14.82
2019-05-16T21:22:32.161Z,14.79
2019-05-16T21:25:05.135Z,14.76
2019-05-16T21:27:38.535Z,14.69
2019-05-16T21:30:11.223Z,14.65
2019-05-16T21:32:42.919Z,14.72
2019-05-16T21:35:15.094Z,14.77
2019-05-16T21:37:46.972Z,14.79
2019-05-16T21:40:19.193Z,14.83
2019-05-16T21:42:51.247Z,14.87
2019-05-16T21:45:22.810Z,14.91
2019-05-16T21:47:56.780Z,14.92
2019-05-16T21:50:28.338Z,14.95
2019-05-16T21:53:00.606Z,14.96
2019-05-16T21:55:32.873Z,14.99
2019-05-16T21:58:04.642Z,14.99
2019-05-16T22:00:43.840Z,15.03
2019-05-16T22:03:16.148Z,15.03
2019-05-16T22:05:48.505Z,15.05
2019-05-16T22:08:20.133Z,15.02
2019-05-16T22:10:51.889Z,14.99
2019-05-16T22:13:24.348Z,14.91
2019-05-16T22:15:57.019Z,14.91
2019-05-16T22:18:30.228Z,14.89
2019-05-16T22:21:11.828Z,14.88
2019-05-16T22:23:43.734Z,14.91
2019-05-16T22:26:16.841Z,15.00
2019-05-16T22:28:51.822Z,15.12
2019-05-16T22:31:26.902Z,15.34
2019-05-16T22:34:01.379Z,15.38
2019-05-16T22:36:37.995Z,15.42
2019-05-16T22:39:12.555Z,15.48
2019-05-16T22:41:46.492Z,15.50
2019-05-16T22:44:18.022Z,15.48
2019-05-16T22:46:50.288Z,15.42
2019-05-16T22:49:39.775Z,15.31
2019-05-16T22:52:12.189Z,15.24
2019-05-16T22:54:44.305Z,15.22
2019-05-16T22:57:17.581Z,15.17
2019-05-16T22:59:50.172Z,15.16
2019-05-16T23:02:22.240Z,15.18
2019-05-16T23:04:53.812Z,15.29
2019-05-16T23:07:27.475Z,15.36
2019-05-16T23:09:59.815Z,15.40
2019-05-16T23:12:31.931Z,15.43
2019-05-16T23:15:06.437Z,15.44
2019-05-16T23:17:37.793Z,15.43
2019-05-16T23:20:09.867Z,15.49
2019-05-16T23:22:41.929Z,15.58
2019-05-16T23:25:13.950Z,15.59
2019-05-16T23:27:47.442Z,15.60
2019-05-16T23:30:19.873Z,15.57
2019-05-16T23:32:51.663Z,15.56
2019-05-16T23:35:23.655Z,15.56
2019-05-16T23:37:56.977Z,15.52
2019-05-16T23:40:29.569Z,15.48
2019-05-16T23:43:01.288Z,15.51
2019-05-16T23:45:33.222Z,15.56
2019-05-16T23:48:09.539Z,15.65
2019-05-16T23:50:38.587Z,15.70
2019-05-16T23:53:10.719Z,15.71
2019-05-16T23:55:43.395Z,15.72
2019-05-16T23:58:15.759Z,15.72
